Time;durP1;ratioP1;P1;durP2;ratioP2;P2;SDS_P1;SDS_P2;PMS_P1;PMS_P2;Temp;Humidity;BMP_temperature;BMP_pressure;BME280_temperature;BME280_humidity;BME280_pressure;Samples;Min_cycle;Max_cycle;Signal;HPM_P1;HPM_P2
2021/01/01 00:00:33;;;;;;;216.68;149.20;;;3.60;90.80;;;;;;6154918;23;20013;-88
2021/01/01 00:03:16;;;;;;;;;;;;;;;;;;;;;
2021/01/01 00:05:54;;;;;;;203.57;138.57;;;3.50;90.80;;;;;;6154245;23;20479;-88
2021/01/01 00:08:30;;;;;;;;;;;;;;;;;;;;;
2021/01/01 00:11:01;;;;;;;198.75;135.38;;;3.50;90.90;;;;;;6155460;23;20394;-87
2021/01/01 00:13:36;;;;;;;192.55;128.60;;;3.50;90.90;;;;;;6154262;23;20005;-87
2021/01/01 00:16:16;;;;;;;177.88;120.68;;;3.50;90.90;;;;;;6154088;23;19998;-89
2021/01/01 00:19:07;;;;;;;171.23;119.20;;;3.50;90.90;;;;;;6131625;23;20005;-89
2021/01/01 00:21:36;;;;;;;169.07;116.00;;;3.50;91.00;;;;;;6154364;23;20006;-89
2021/01/01 00:24:12;;;;;;;165.50;111.60;;;3.40;90.90;;;;;;6129876;23;20042;-87
2021/01/01 00:26:58;;;;;;;163.93;111.28;;;3.40;91.00;;;;;;6155079;23;20428;-89
2021/01/01 00:29:32;;;;;;;155.25;106.15;;;3.40;91.00;;;;;;6154376;23;20328;-88
2021/01/01 00:32:20;;;;;;;;;;;;;;;;;;;;;
2021/01/01 00:34:58;;;;;;;152.02;104.15;;;3.30;91.00;;;;;;6156204;23;20407;-87
2021/01/01 00:37:47;;;;;;;150.13;100.93;;;3.40;91.00;;;;;;6131681;23;20005;-87
2021/01/01 00:40:25;;;;;;;140.90;94.32;;;3.30;91.00;;;;;;6144760;23;20066;-87
2021/01/01 00:43:03;;;;;;;125.63;86.13;;;3.30;91.00;;;;;;6154243;23;20096;-89
2021/01/01 00:45:58;;;;;;;117.05;79.10;;;3.20;91.00;;;;;;6154926;23;20424;-89
2021/01/01 00:48:28;;;;;;;113.18;76.00;;;3.20;91.00;;;;;;6151216;23;20005;-87
2021/01/01 00:51:06;;;;;;;105.93;72.55;;;3.20;91.00;;;;;;6155923;23;20012;-87
2021/01/01 00:53:53;;;;;;;108.15;73.20;;;3.20;91.00;;;;;;6129578;23;20005;-88
2021/01/01 00:56:24;;;;;;;108.18;71.82;;;3.20;91.00;;;;;;6154559;23;20016;-88
2021/01/01 00:58:59;;;;;;;109.88;72.63;;;3.10;91.00;;;;;;6153339;23;20440;-89
2021/01/01 01:01:37;;;;;;;105.32;71.75;;;3.10;91.00;;;;;;6155565;23;20084;-88
2021/01/01 01:04:11;;;;;;;109.22;72.78;;;3.10;91.00;;;;;;6152162;23;20469;-87
2021/01/01 01:06:42;;;;;;;106.18;70.97;;;3.10;91.00;;;;;;6155586;23;20013;-88
2021/01/01 01:09:50;;;;;;;104.18;70.13;;;3.10;91.00;;;;;;6129594;23;20033;-89
2021/01/01 01:12:29;;;;;;;104.18;69.88;;;3.10;91.00;;;;;;6155369;23;20005;-89
2021/01/01 01:15:02;;;;;;;108.90;72.43;;;3.10;91.10;;;;;;6104891;23;20005;-88
2021/01/01 01:17:52;;;;;;;114.93;74.38;;;3.00;91.00;;;;;;6129345;23;20040;-88
2021/01/01 01:20:28;;;;;;;121.90;79.32;;;3.00;91.10;;;;;;6146184;23;20006;-88
2021/01/01 01:23:05;;;;;;;118.90;81.28;;;3.00;91.10;;;;;;6130325;23;20016;-86
2021/01/01 01:25:43;;;;;;;125.28;82.57;;;3.00;91.10;;;;;;6153358;23;20005;-88
2021/01/01 01:28:55;;;;;;;127.13;84.07;;;3.00;91.10;;;;;;6106181;23;20060;-88
2021/01/01 01:31:32;;;;;;;124.68;83.82;;;2.90;91.10;;;;;;6153989;23;20006;-87
2021/01/01 01:34:10;;;;;;;129.15;83.15;;;2.90;91.10;;;;;;6154176;23;20010;-89
2021/01/01 01:36:53;;;;;;;;;;;;;;;;;;;;;
2021/01/01 01:39:24;;;;;;;132.32;87.15;;;2.90;91.10;;;;;;6153514;23;20088;-85
2021/01/01 01:41:52;;;;;;;128.93;86.37;;;2.80;91.10;;;;;;6129682;23;20062;-88
2021/01/01 01:44:23;;;;;;;127.82;86.03;;;2.80;91.10;;;;;;6153935;23;20237;-88
2021/01/01 01:49:43;;;;;;;133.05;88.70;;;2.80;91.10;;;;;;6137826;23;20337;-87
2021/01/01 01:55:04;;;;;;;133.55;85.95;;;2.70;91.10;;;;;;6155582;23;20424;-88
2021/01/01 01:57:56;;;;;;;135.70;86.80;;;2.70;91.10;;;;;;6128748;23;20017;-89
2021/01/01 02:03:23;;;;;;;132.95;86.95;;;2.70;91.20;;;;;;6165295;23;20009;-88
2021/01/01 02:05:51;;;;;;;138.10;87.75;;;2.60;91.20;;;;;;6152821;23;20011;-87
2021/01/01 02:08:26;;;;;;;136.13;87.60;;;2.60;91.10;;;;;;6153825;23;20017;-87
2021/01/01 02:11:09;;;;;;;135.45;86.53;;;2.60;91.10;;;;;;6153858;23;20005;-87
2021/01/01 02:13:42;;;;;;;132.18;86.93;;;2.50;91.10;;;;;;6154334;23;20008;-90
2021/01/01 02:16:33;;;;;;;130.63;85.32;;;2.50;91.10;;;;;;6154056;23;20009;-88
2021/01/01 02:18:59;;;;;;;131.20;84.35;;;2.50;91.10;;;;;;6155116;23;20002;-88
2021/01/01 02:24:45;;;;;;;;;;;;;;;;;;;;;
2021/01/01 02:27:18;;;;;;;130.95;83.78;;;2.40;91.10;;;;;;6154880;23;20084;-89
2021/01/01 02:29:47;;;;;;;138.45;84.47;;;2.40;91.10;;;;;;6129058;23;20097;-89
2021/01/01 02:32:42;;;;;;;135.32;83.55;;;2.30;91.10;;;;;;6153200;23;20038;-86
2021/01/01 02:36:07;;;;;;;129.70;81.32;;;2.30;91.10;;;;;;6153470;23;20006;-88
2021/01/01 02:38:46;;;;;;;125.50;81.22;;;2.20;91.10;;;;;;6155440;23;20010;-87
2021/01/01 02:41:20;;;;;;;125.65;78.88;;;2.20;91.10;;;;;;6155703;23;20468;-88
2021/01/01 02:44:01;;;;;;;121.65;78.22;;;2.20;91.10;;;;;;6155637;23;20309;-87
2021/01/01 02:46:34;;;;;;;126.00;78.55;;;2.20;91.10;;;;;;6133772;23;20009;-88
2021/01/01 02:49:05;;;;;;;123.65;78.95;;;2.20;91.20;;;;;;6131291;23;20016;-86
2021/01/01 02:51:48;;;;;;;122.22;78.03;;;2.20;91.20;;;;;;6156338;23;20005;-87
2021/01/01 02:54:47;;;;;;;129.18;78.00;;;2.20;91.20;;;;;;6131607;23;20005;-87
2021/01/01 02:57:18;;;;;;;123.05;79.53;;;2.10;91.20;;;;;;6147397;23;20016;-88
2021/01/01 02:59:46;;;;;;;128.13;80.03;;;2.10;91.20;;;;;;6155069;23;20037;-87
2021/01/01 03:02:15;;;;;;;133.65;82.22;;;2.10;91.20;;;;;;6131505;23;20040;-88
2021/01/01 03:05:01;;;;;;;140.20;88.80;;;2.10;91.20;;;;;;6157180;23;20120;-87
2021/01/01 03:07:39;;;;;;;;;;;;;;;;;;;;;
2021/01/01 03:13:17;;;;;;;161.30;102.03;;;2.00;91.30;;;;;;6145880;23;20436;-89
2021/01/01 03:15:48;;;;;;;160.82;102.03;;;2.00;91.30;;;;;;6131374;23;20036;-88
2021/01/01 03:18:31;;;;;;;156.25;97.72;;;2.00;91.30;;;;;;6129434;23;20439;-89
2021/01/01 03:21:16;;;;;;;156.18;94.75;;;2.00;91.40;;;;;;6155857;23;20036;-89
2021/01/01 03:24:20;;;;;;;161.70;97.63;;;2.00;91.40;;;;;;6133969;23;20045;-87
2021/01/01 03:27:14;;;;;;;;;;;;;;;;;;;;;
2021/01/01 03:29:43;;;;;;;159.05;98.93;;;1.90;91.30;;;;;;6152069;23;20385;-88
2021/01/01 03:32:09;;;;;;;148.32;93.82;;;1.90;91.40;;;;;;6155775;23;20021;-87
2021/01/01 03:34:46;;;;;;;152.07;93.03;;;1.90;91.40;;;;;;6155477;23;20465;-87
2021/01/01 03:40:39;;;;;;;133.65;84.30;;;1.90;91.50;;;;;;6146043;23;20010;-87
2021/01/01 03:43:15;;;;;;;142.30;89.43;;;1.90;91.50;;;;;;6134086;23;20527;-88
2021/01/01 03:45:50;;;;;;;141.63;85.65;;;1.90;91.60;;;;;;6131686;23;20068;-88
2021/01/01 03:48:30;;;;;;;133.18;81.55;;;1.90;91.60;;;;;;6149624;23;20029;-87
2021/01/01 03:50:56;;;;;;;137.75;82.75;;;1.90;91.60;;;;;;6132448;23;20010;-86
2021/01/01 03:53:52;;;;;;;137.63;82.32;;;1.90;91.70;;;;;;6155442;23;20455;-88
2021/01/01 03:56:22;;;;;;;126.97;76.90;;;1.90;91.70;;;;;;6134520;23;20142;-88
2021/01/01 03:59:30;;;;;;;122.70;78.63;;;1.90;91.70;;;;;;6154244;23;20005;-88
2021/01/01 04:02:12;;;;;;;126.65;76.82;;;1.90;91.70;;;;;;6133973;23;20482;-88
2021/01/01 04:04:49;;;;;;;;;;;;;;;;;;;;;
2021/01/01 04:07:23;;;;;;;123.97;74.60;;;1.90;91.70;;;;;;6155090;23;20120;-87
2021/01/01 04:09:58;;;;;;;121.38;74.57;;;1.90;91.70;;;;;;6154051;23;20110;-87
2021/01/01 04:15:20;;;;;;;124.10;74.03;;;1.90;91.70;;;;;;6139081;23;20084;-87
2021/01/01 04:18:13;;;;;;;125.00;75.05;;;1.90;91.70;;;;;;6153466;23;20005;-87
2021/01/01 04:20:56;;;;;;;;;;;;;;;;;;;;;
2021/01/01 04:23:25;;;;;;;110.20;71.22;;;1.90;91.70;;;;;;6156647;23;20100;-88
2021/01/01 04:26:14;;;;;;;109.00;69.28;;;1.90;91.80;;;;;;6154684;23;19997;-87
2021/01/01 04:28:45;;;;;;;107.97;69.32;;;1.90;91.80;;;;;;6154915;23;20029;-87
2021/01/01 04:31:13;;;;;;;116.60;69.82;;;1.90;91.80;;;;;;6131054;23;20044;-86
2021/01/01 04:36:43;;;;;;;111.35;68.50;;;1.90;91.90;;;;;;6134084;23;20005;-88
2021/01/01 04:39:19;;;;;;;;;;;;;;;;;;;;;
2021/01/01 04:42:13;;;;;;;110.80;68.10;;;2.00;92.00;;;;;;6155823;23;20088;-87
2021/01/01 04:44:41;;;;;;;106.07;64.75;;;2.00;92.00;;;;;;6132029;23;20009;-87
2021/01/01 04:47:22;;;;;;;107.22;65.63;;;2.00;92.00;;;;;;6154386;23;20006;-87
2021/01/01 04:50:09;;;;;;;;;;;;;;;;;;;;;
2021/01/01 04:52:55;;;;;;;110.22;67.15;;;2.10;92.10;;;;;;6154314;23;20080;-87
2021/01/01 04:55:27;;;;;;;112.05;67.10;;;2.10;92.10;;;;;;6153850;23;20032;-89
2021/01/01 05:00:59;;;;;;;111.70;67.82;;;2.20;92.10;;;;;;6144881;23;20332;-87
2021/01/01 05:03:26;;;;;;;120.35;71.40;;;2.20;92.10;;;;;;6153421;23;20009;-91
2021/01/01 05:05:55;;;;;;;112.00;69.07;;;2.20;92.10;;;;;;6154347;23;20001;-86
2021/01/01 05:08:31;;;;;;;117.55;72.85;;;2.20;92.10;;;;;;6153719;23;20101;-89
2021/01/01 05:14:15;;;;;;;114.68;70.78;;;2.20;92.20;;;;;;6155424;23;20311;-87
2021/01/01 05:17:02;;;;;;;109.88;67.90;;;2.30;92.20;;;;;;6152547;23;20412;-89
2021/01/01 05:19:59;;;;;;;112.20;66.35;;;2.30;92.20;;;;;;6130759;23;20025;-87
2021/01/01 05:23:10;;;;;;;115.20;72.18;;;2.30;92.10;;;;;;6131677;23;20092;-87
2021/01/01 05:25:45;;;;;;;118.88;71.90;;;2.30;92.10;;;;;;6154906;23;20084;-87
2021/01/01 05:28:48;;;;;;;114.80;71.88;;;2.20;92.10;;;;;;6154714;23;20016;-86
2021/01/01 05:31:38;;;;;;;123.85;73.25;;;2.30;92.10;;;;;;6137952;23;20005;-88
2021/01/01 05:34:14;;;;;;;119.82;71.25;;;2.30;92.10;;;;;;6154052;23;20002;-88
2021/01/01 05:37:34;;;;;;;116.68;73.63;;;2.30;92.10;;;;;;6154273;23;20086;-87
2021/01/01 05:40:32;;;;;;;118.65;72.65;;;2.30;92.10;;;;;;6134417;23;20450;-87
2021/01/01 05:43:38;;;;;;;117.47;72.63;;;2.20;92.10;;;;;;6132088;23;20044;-86
2021/01/01 05:46:13;;;;;;;117.38;72.78;;;2.20;92.10;;;;;;6110594;23;20301;-87
2021/01/01 05:49:11;;;;;;;;;;;;;;;;;;;;;
2021/01/01 05:52:04;;;;;;;116.68;71.78;;;2.20;92.00;;;;;;6153542;23;20081;-87
2021/01/01 05:54:49;;;;;;;122.10;74.95;;;2.10;92.00;;;;;;6154050;23;20013;-87
2021/01/01 05:57:37;;;;;;;115.53;74.28;;;2.10;92.00;;;;;;6155838;23;20081;-87
2021/01/01 06:00:21;;;;;;;;;;;;;;;;;;;;;
2021/01/01 06:02:56;;;;;;;123.40;74.00;;;2.10;92.00;;;;;;6155540;23;20084;-88
2021/01/01 06:05:32;;;;;;;124.28;79.00;;;2.00;92.00;;;;;;6153927;23;20384;-88
2021/01/01 06:08:15;;;;;;;121.20;76.97;;;2.00;91.90;;;;;;6153159;23;20017;-87
2021/01/01 06:10:51;;;;;;;123.20;76.38;;;2.00;91.90;;;;;;6153413;23;20554;-86
2021/01/01 06:13:44;;;;;;;120.50;75.03;;;2.00;91.90;;;;;;6154457;23;19998;-88
2021/01/01 06:16:20;;;;;;;116.25;73.40;;;2.00;91.90;;;;;;6147083;23;20006;-88
2021/01/01 06:19:10;;;;;;;125.50;73.72;;;1.90;91.90;;;;;;6153467;23;20002;-88
2021/01/01 06:24:54;;;;;;;118.78;75.13;;;1.90;91.90;;;;;;6153799;23;20447;-88
2021/01/01 06:27:29;;;;;;;120.32;73.68;;;1.80;91.90;;;;;;6153678;23;20068;-87
2021/01/01 06:30:11;;;;;;;131.13;77.07;;;1.80;91.90;;;;;;6154432;23;20001;-87
2021/01/01 06:32:50;;;;;;;123.65;77.65;;;1.90;91.90;;;;;;6153067;23;20005;-87
2021/01/01 06:35:23;;;;;;;123.43;77.00;;;1.80;91.90;;;;;;6154287;23;20085;-87
2021/01/01 06:37:58;;;;;;;125.90;75.63;;;1.80;91.90;;;;;;6153756;23;20075;-87
2021/01/01 06:40:35;;;;;;;125.60;76.78;;;1.80;91.90;;;;;;6153993;23;20010;-87
2021/01/01 06:43:04;;;;;;;126.10;75.35;;;1.80;92.00;;;;;;6154141;23;20002;-86
2021/01/01 06:45:48;;;;;;;120.10;74.10;;;1.90;92.00;;;;;;6155544;23;20302;-87
2021/01/01 06:48:39;;;;;;;119.80;74.50;;;1.80;92.00;;;;;;6153021;23;20009;-88
2021/01/01 06:51:16;;;;;;;127.88;76.55;;;1.80;92.00;;;;;;6129087;23;20048;-88
2021/01/01 06:53:46;;;;;;;120.53;76.47;;;1.80;92.00;;;;;;6129070;23;20002;-87
2021/01/01 06:56:22;;;;;;;120.10;74.47;;;1.80;92.00;;;;;;6154212;23;20006;-88
2021/01/01 06:59:18;;;;;;;120.90;74.75;;;1.80;92.10;;;;;;6153310;23;20001;-88
2021/01/01 07:01:59;;;;;;;;;;;;;;;;;;;;;
2021/01/01 07:04:29;;;;;;;125.65;76.53;;;1.80;92.10;;;;;;6153706;23;20084;-89
2021/01/01 07:07:27;;;;;;;;;;;;;;;;;;;;;
2021/01/01 07:10:03;;;;;;;127.45;78.00;;;1.90;92.10;;;;;;6150953;23;20096;-86
2021/01/01 07:16:19;;;;;;;133.13;82.82;;;1.90;92.20;;;;;;6138316;23;20396;-87
2021/01/01 07:19:06;;;;;;;133.73;82.25;;;1.90;92.20;;;;;;6130752;23;20807;-88
2021/01/01 07:21:37;;;;;;;133.02;80.80;;;1.90;92.20;;;;;;6154085;23;20084;-87
2021/01/01 07:26:55;;;;;;;128.25;81.07;;;1.90;92.50;;;;;;6145324;23;20005;-88
2021/01/01 07:29:37;;;;;;;134.40;80.07;;;2.00;92.30;;;;;;6155135;23;20324;-87
2021/01/01 07:32:29;;;;;;;134.40;77.38;;;2.00;92.20;;;;;;6155881;23;20005;-87
2021/01/01 07:35:14;;;;;;;124.72;77.65;;;2.00;92.30;;;;;;6152674;23;20088;-88
2021/01/01 07:37:43;;;;;;;119.82;73.43;;;2.00;92.30;;;;;;6155306;23;20013;-87
2021/01/01 07:40:42;;;;;;;125.97;74.38;;;2.00;92.30;;;;;;6154872;23;20002;-87
2021/01/01 07:43:13;;;;;;;116.65;73.40;;;2.00;92.30;;;;;;6136616;23;20013;-88
2021/01/01 07:46:14;;;;;;;117.60;71.25;;;2.10;92.30;;;;;;6130488;23;20009;-86
2021/01/01 07:48:55;;;;;;;108.20;68.07;;;2.10;92.40;;;;;;6115398;23;20081;-88
2021/01/01 07:51:33;;;;;;;93.13;58.75;;;2.10;92.40;;;;;;6156113;23;20002;-89
2021/01/01 07:55:02;;;;;;;90.95;54.40;;;2.10;92.40;;;;;;6129748;23;20009;-88
2021/01/01 07:57:31;;;;;;;87.25;54.45;;;2.10;92.40;;;;;;6151901;23;20017;-89
2021/01/01 08:00:03;;;;;;;85.75;52.08;;;2.10;92.40;;;;;;6106554;23;20060;-88
2021/01/01 08:02:46;;;;;;;87.07;53.08;;;2.20;92.40;;;;;;6154536;23;20041;-88
2021/01/01 08:05:29;;;;;;;85.80;50.28;;;2.20;92.40;;;;;;6154898;23;20005;-87
2021/01/01 08:08:19;;;;;;;86.95;51.92;;;2.20;92.40;;;;;;6154791;23;20297;-88
2021/01/01 08:11:06;;;;;;;81.88;49.25;;;2.20;92.40;;;;;;6154210;23;20435;-87
2021/01/01 08:13:44;;;;;;;;;;;;;;;;;;;;;
2021/01/01 08:16:47;;;;;;;;;;;;;;;;;;;;;
2021/01/01 08:19:55;;;;;;;71.68;43.60;;;2.20;92.50;;;;;;6153797;23;20092;-87
2021/01/01 08:23:02;;;;;;;67.70;39.40;;;2.30;92.50;;;;;;6148751;23;20037;-88
2021/01/01 08:25:50;;;;;;;66.18;39.65;;;2.30;92.80;;;;;;6154839;23;20416;-91
2021/01/01 08:28:38;;;;;;;;;;;;;;;;;;;;;
2021/01/01 08:31:20;;;;;;;63.20;37.03;;;2.30;92.50;;;;;;6156078;23;20088;-89
2021/01/01 08:34:10;;;;;;;58.85;34.47;;;2.40;92.60;;;;;;6153881;23;20076;-90
2021/01/01 08:37:22;;;;;;;61.20;35.53;;;2.40;92.60;;;;;;6081995;23;20033;-90
2021/01/01 08:40:41;;;;;;;59.30;34.97;;;2.40;92.60;;;;;;6155652;23;20005;-89
2021/01/01 08:43:11;;;;;;;58.80;32.90;;;2.50;92.60;;;;;;6154964;23;20013;-89
2021/01/01 08:45:39;;;;;;;51.47;31.00;;;2.50;92.60;;;;;;6130851;23;20010;-88
2021/01/01 08:48:11;;;;;;;53.67;31.27;;;2.50;92.60;;;;;;6130043;23;20005;-90
2021/01/01 08:50:58;;;;;;;;;;;;;;;;;;;;;
2021/01/01 08:53:32;;;;;;;48.10;29.20;;;2.60;92.70;;;;;;6155706;23;20096;-90
2021/01/01 08:56:01;;;;;;;49.85;28.80;;;2.60;92.60;;;;;;6132053;23;20064;-90
2021/01/01 08:59:06;;;;;;;47.50;29.85;;;2.70;92.70;;;;;;6129791;23;20009;-89
2021/01/01 09:02:01;;;;;;;46.13;28.30;;;2.70;92.70;;;;;;6154737;23;20081;-90
2021/01/01 09:04:41;;;;;;;;;;;;;;;;;;;;;
2021/01/01 09:07:15;;;;;;;46.47;26.25;;;2.80;92.70;;;;;;6155861;23;20053;-91
2021/01/01 09:09:45;;;;;;;45.15;26.75;;;2.80;92.70;;;;;;6155851;23;20044;-89
2021/01/01 09:12:23;;;;;;;40.08;24.23;;;2.80;92.70;;;;;;6130269;23;20006;-91
2021/01/01 09:14:55;;;;;;;40.03;25.27;;;2.90;92.70;;;;;;6156658;23;19998;-89
2021/01/01 09:17:29;;;;;;;40.72;24.52;;;2.90;92.70;;;;;;6154362;23;20006;-90
2021/01/01 09:20:19;;;;;;;40.05;23.67;;;2.90;92.70;;;;;;6154067;23;20004;-89
2021/01/01 09:23:01;;;;;;;43.08;24.52;;;3.00;92.70;;;;;;6153417;23;20005;-90
2021/01/01 09:25:45;;;;;;;;;;;;;;;;;;;;;
2021/01/01 09:28:32;;;;;;;44.25;27.10;;;3.00;92.60;;;;;;6156079;23;20072;-89
2021/01/01 09:30:59;;;;;;;39.60;25.23;;;3.00;92.60;;;;;;6156148;23;20006;-91
2021/01/01 09:33:35;;;;;;;39.50;24.27;;;3.00;92.60;;;;;;6154788;23;20005;-90
2021/01/01 09:36:10;;;;;;;39.58;24.38;;;3.10;92.70;;;;;;6131412;23;20447;-88
2021/01/01 09:38:50;;;;;;;38.50;23.63;;;3.10;92.70;;;;;;6155457;23;20004;-88
2021/01/01 09:41:29;;;;;;;37.38;22.27;;;3.10;92.70;;;;;;6131315;23;20010;-90
2021/01/01 09:46:47;;;;;;;36.60;22.77;;;3.20;92.60;;;;;;6155387;23;20006;-88
2021/01/01 09:49:20;;;;;;;36.00;21.23;;;3.20;92.70;;;;;;6153869;23;20340;-89
2021/01/01 09:51:51;;;;;;;35.60;22.40;;;3.30;92.70;;;;;;6153758;23;20036;-87
2021/01/01 09:54:39;;;;;;;36.13;22.13;;;3.30;92.70;;;;;;6154534;23;20044;-87
2021/01/01 09:57:11;;;;;;;32.58;21.77;;;3.40;92.80;;;;;;6145690;23;20006;-87
2021/01/01 09:59:44;;;;;;;32.22;20.48;;;3.40;92.70;;;;;;6152841;23;20056;-89
2021/01/01 10:02:30;;;;;;;;;;;;;;;;;;;;;
2021/01/01 10:05:09;;;;;;;;;;;;;;;;;;;;;
2021/01/01 10:08:14;;;;;;;32.28;20.00;;;3.50;92.70;;;;;;6155090;23;20108;-88
2021/01/01 10:10:43;;;;;;;29.92;18.83;;;3.60;92.70;;;;;;6149256;23;20021;-88
2021/01/01 10:13:34;;;;;;;;;;;;;;;;;;;;;
2021/01/01 10:16:18;;;;;;;;;;;;;;;;;;;;;
2021/01/01 10:19:14;;;;;;;28.95;18.30;;;3.70;92.70;;;;;;6155225;23;20511;-86
2021/01/01 10:21:59;;;;;;;27.73;17.17;;;3.70;92.70;;;;;;6153388;23;20060;-90
2021/01/01 10:24:41;;;;;;;;;;;;;;;;;;;;;
2021/01/01 10:27:11;;;;;;;;;;;3.80;92.70;;;;;;6133151;23;20080;-90
2021/01/01 10:33:35;;;;;;;24.65;15.90;;;3.80;92.70;;;;;;6143753;23;20104;-90
2021/01/01 10:42:43;;;;;;;23.35;14.52;;;3.90;92.70;;;;;;6138694;23;20025;-89
2021/01/01 10:45:35;;;;;;;21.92;14.35;;;4.00;92.80;;;;;;6154086;23;20006;-90
2021/01/01 10:59:14;;;;;;;;;;;;;;;;;;;;;
2021/01/01 11:02:41;;;;;;;18.63;12.50;;;4.20;92.80;;;;;;6092918;23;20024;-91
2021/01/01 11:05:50;;;;;;;;;;;;;;;;;;;;;
2021/01/01 11:11:46;;;;;;;;;;;;;;;;;;;;;
2021/01/01 12:19:40;;;;;;;21.23;12.05;;;4.30;92.80;;;;;;6133885;23;20084;-89
2021/01/01 12:26:12;;;;;;;;;;;;;;;;;;;;;
2021/01/01 12:29:32;;;;;;;;;;;;;;;;;;;;;
2021/01/01 12:35:26;;;;;;;;;;;;;;;;;;;;;
2021/01/01 12:46:17;;;;;;;;;;;;;;;;;;;;;
2021/01/01 13:03:39;;;;;;;;;;;;;;;;;;;;;
2021/01/01 13:07:15;;;;;;;;;;;;;;;;;;;;;
2021/01/01 13:10:31;;;;;;;;;;;;;;;;;;;;;
2021/01/01 13:17:33;;;;;;;;;;;;;;;;;;;;;
2021/01/01 13:25:16;;;;;;;;;;;;;;;;;;;;;
2021/01/01 13:27:54;;;;;;;11.75;7.85;;;5.60;92.40;;;;;;6081257;23;20018;-89
2021/01/01 13:30:27;;;;;;;10.55;7.80;;;5.60;92.40;;;;;;6095940;23;20010;-87
2021/01/01 13:33:21;;;;;;;12.75;8.25;;;5.60;92.40;;;;;;6070932;23;20014;-89
2021/01/01 13:36:49;;;;;;;;;;;;;;;;;;;;;
2021/01/01 13:40:36;;;;;;;;;;;;;;;;;;;;;
2021/01/01 13:43:24;;;;;;;;;;;;;;;;;;;;;
2021/01/01 13:49:51;;;;;;;;;;;;;;;;;;;;;
2021/01/01 14:03:37;;;;;;;;;;;;;;;;;;;;;
2021/01/01 14:07:24;;;;;;;;;;;;;;;;;;;;;
2021/01/01 14:13:42;;;;;;;11.07;6.78;;;5.60;92.30;;;;;;5845283;24;20018;-88
2021/01/01 14:27:25;;;;;;;;;;;;;;;;;;;;;
2021/01/01 15:09:16;;;;;;;;;;;;;;;;;;;;;
2021/01/01 15:12:36;;;;;;;;;;;;;;;;;;;;;
2021/01/01 15:22:32;;;;;;;;;;;;;;;;;;;;;
2021/01/01 15:25:41;;;;;;;;;;;;;;;;;;;;;
2021/01/01 15:32:05;;;;;;;;;;;;;;;;;;;;;
2021/01/01 15:35:04;;;;;;;;;;;;;;;;;;;;;
2021/01/01 15:38:05;;;;;;;;;;;;;;;;;;;;;
2021/01/01 15:47:29;;;;;;;;;;;;;;;;;;;;;
2021/01/01 15:50:50;;;;;;;12.45;7.72;;;5.30;92.20;;;;;;6133697;23;20606;-89
2021/01/01 15:54:25;;;;;;;;;;;;;;;;;;;;;
2021/01/01 15:57:17;;;;;;;;;;;;;;;;;;;;;
2021/01/01 16:03:22;;;;;;;;;;;;;;;;;;;;;
2021/01/01 16:06:19;;;;;;;19.30;12.15;;;5.20;92.20;;;;;;6137998;23;20088;-90
2021/01/01 16:12:15;;;;;;;;;;;;;;;;;;;;;
2021/01/01 16:18:48;;;;;;;;;;;;;;;;;;;;;
2021/01/01 16:24:56;;;;;;;13.80;8.20;;;5.20;92.30;;;;;;6145788;23;20342;-90
2021/01/01 16:27:54;;;;;;;13.68;8.80;;;5.10;92.20;;;;;;6154109;23;20045;-90
2021/01/01 16:30:47;;;;;;;13.57;8.45;;;5.10;92.30;;;;;;6122791;23;20040;-89
2021/01/01 16:33:18;;;;;;;13.35;8.38;;;5.10;92.30;;;;;;6132499;23;20483;-90
2021/01/01 16:36:23;;;;;;;12.13;8.57;;;5.10;92.30;;;;;;6155100;23;20044;-90
2021/01/01 16:39:34;;;;;;;;;;;;;;;;;;;;;
2021/01/01 16:42:25;;;;;;;;;;;;;;;;;;;;;
2021/01/01 16:45:36;;;;;;;;;;;;;;;;;;;;;
2021/01/01 16:48:20;;;;;;;;;;;;;;;;;;;;;
2021/01/01 16:51:21;;;;;;;15.07;10.18;;;5.10;92.30;;;;;;6155040;23;19972;-89
2021/01/01 16:54:02;;;;;;;16.27;10.30;;;5.10;92.30;;;;;;6088407;23;20017;-90
2021/01/01 16:57:05;;;;;;;;;;;;;;;;;;;;;
2021/01/01 16:59:57;;;;;;;18.38;10.20;;;5.00;92.30;;;;;;6140125;23;20092;-89
2021/01/01 17:03:22;;;;;;;;;;;;;;;;;;;;;
2021/01/01 17:06:18;;;;;;;;;;;;;;;;;;;;;
2021/01/01 17:09:23;;;;;;;;;;;;;;;;;;;;;
2021/01/01 17:12:30;;;;;;;17.63;10.77;;;4.90;92.20;;;;;;6154487;23;20089;-89
2021/01/01 17:15:37;;;;;;;;;;;;;;;;;;;;;
2021/01/01 17:18:19;;;;;;;;;;;;;;;;;;;;;
2021/01/01 17:20:54;;;;;;;15.70;10.57;;;4.90;92.20;;;;;;6132667;23;20080;-89
2021/01/01 17:23:43;;;;;;;16.30;10.98;;;4.90;92.30;;;;;;6154190;23;20007;-89
2021/01/01 17:26:37;;;;;;;16.50;11.13;;;4.90;92.30;;;;;;6155655;23;20482;-89
2021/01/01 17:29:09;;;;;;;18.75;11.95;;;4.90;92.30;;;;;;6154640;23;20005;-88
2021/01/01 17:31:59;;;;;;;16.95;11.20;;;4.90;92.30;;;;;;6154136;23;20006;-88
2021/01/01 17:34:30;;;;;;;17.60;11.65;;;4.90;92.30;;;;;;6133730;23;20006;-90
2021/01/01 17:37:40;;;;;;;16.65;12.00;;;4.90;92.30;;;;;;6129709;23;20006;-88
2021/01/01 17:40:31;;;;;;;17.58;11.25;;;4.90;92.30;;;;;;6154745;23;20005;-88
2021/01/01 17:43:29;;;;;;;16.27;11.13;;;4.90;92.30;;;;;;6133908;23;20013;-86
2021/01/01 17:46:09;;;;;;;17.23;11.30;;;4.90;92.30;;;;;;6153426;23;20234;-87
2021/01/01 17:48:48;;;;;;;;;;;;;;;;;;;;;
2021/01/01 17:54:33;;;;;;;;;;;;;;;;;;;;;
2021/01/01 17:57:04;;;;;;;16.63;11.27;;;4.90;92.40;;;;;;6154777;23;20080;-90
2021/01/01 18:00:12;;;;;;;;;;;;;;;;;;;;;
2021/01/01 18:02:53;;;;;;;15.23;10.30;;;4.90;92.40;;;;;;6155252;23;20096;-89
2021/01/01 18:05:46;;;;;;;17.52;11.30;;;4.90;92.40;;;;;;6132325;23;20009;-88
2021/01/01 18:08:37;;;;;;;;;;;;;;;;;;;;;
2021/01/01 18:11:14;;;;;;;18.70;12.15;;;5.00;92.40;;;;;;6154310;23;20096;-89
2021/01/01 18:14:14;;;;;;;;;;;;;;;;;;;;;
2021/01/01 18:17:25;;;;;;;16.48;10.45;;;5.00;92.40;;;;;;6153570;23;20377;-88
2021/01/01 18:23:34;;;;;;;;;;;;;;;;;;;;;
2021/01/01 18:26:23;;;;;;;20.00;12.20;;;5.00;92.50;;;;;;6154717;23;20487;-88
2021/01/01 18:29:02;;;;;;;17.65;11.82;;;5.00;92.50;;;;;;6153907;23;19997;-88
2021/01/01 18:32:00;;;;;;;18.27;11.02;;;5.00;92.50;;;;;;6153402;23;20060;-90
2021/01/01 18:35:01;;;;;;;17.30;12.63;;;5.10;92.50;;;;;;6155257;23;20005;-88
2021/01/01 18:37:55;;;;;;;;;;;;;;;;;;;;;
2021/01/01 18:40:41;;;;;;;19.55;12.45;;;5.00;92.50;;;;;;6155643;23;20073;-88
2021/01/01 18:43:19;;;;;;;17.40;11.27;;;5.10;92.50;;;;;;6130180;23;20044;-88
2021/01/01 18:45:49;;;;;;;17.58;11.50;;;5.00;92.50;;;;;;6153777;23;20008;-87
2021/01/01 18:48:33;;;;;;;18.15;11.80;;;5.10;92.50;;;;;;6154063;23;20385;-90
2021/01/01 18:51:20;;;;;;;16.48;11.73;;;5.10;92.50;;;;;;6154899;23;20411;-90
2021/01/01 18:53:57;;;;;;;21.02;13.18;;;5.10;92.50;;;;;;6154612;23;20060;-88
2021/01/01 18:56:55;;;;;;;;;;;;;;;;;;;;;
2021/01/01 18:59:50;;;;;;;;;;;;;;;;;;;;;
2021/01/01 19:02:40;;;;;;;18.30;11.55;;;5.10;92.50;;;;;;6155653;23;20096;-91
2021/01/01 19:05:57;;;;;;;17.92;12.00;;;5.10;92.50;;;;;;6155026;23;20005;-90
2021/01/01 19:08:35;;;;;;;16.60;11.65;;;5.10;92.50;;;;;;6129413;23;20017;-90
2021/01/01 19:14:46;;;;;;;;;;;;;;;;;;;;;
2021/01/01 19:17:39;;;;;;;;;;;;;;;;;;;;;
2021/01/01 19:20:59;;;;;;;19.58;13.15;;;5.10;92.60;;;;;;6158230;23;20074;-88
2021/01/01 19:23:45;;;;;;;18.00;12.02;;;5.10;92.60;;;;;;6156217;23;20013;-89
2021/01/01 19:30:02;;;;;;;20.48;12.82;;;5.10;92.60;;;;;;6157266;23;20063;-89
2021/01/01 19:36:49;;;;;;;18.80;12.57;;;5.10;92.60;;;;;;6148471;23;20495;-88
2021/01/01 19:40:04;;;;;;;19.58;12.77;;;5.10;92.60;;;;;;6137247;23;20005;-90
2021/01/01 19:43:04;;;;;;;17.55;12.15;;;5.10;92.60;;;;;;6117596;23;20013;-88
2021/01/01 19:46:12;;;;;;;17.67;11.05;;;5.10;92.60;;;;;;6119262;23;20001;-91
2021/01/01 19:49:08;;;;;;;16.73;10.60;;;5.10;92.70;;;;;;6155620;23;20001;-90
2021/01/01 19:52:27;;;;;;;;;;;;;;;;;;;;;
2021/01/01 20:02:12;;;;;;;;;;;;;;;;;;;;;
2021/01/01 20:05:09;;;;;;;14.68;9.68;;;5.10;92.60;;;;;;6156109;23;20085;-89
2021/01/01 20:08:25;;;;;;;15.95;10.48;;;5.10;92.60;;;;;;6139756;23;20017;-89
2021/01/01 20:11:20;;;;;;;16.95;10.30;;;5.10;92.60;;;;;;6154746;23;20335;-90
2021/01/01 20:13:56;;;;;;;;;;;;;;;;;;;;;
2021/01/01 20:17:00;;;;;;;18.50;11.32;;;5.10;92.60;;;;;;6155484;23;20093;-89
2021/01/01 20:23:00;;;;;;;20.67;11.98;;;5.10;92.60;;;;;;6110621;23;20384;-89
2021/01/01 20:25:57;;;;;;;15.07;10.77;;;5.10;92.70;;;;;;6155798;23;20432;-89
2021/01/01 20:28:46;;;;;;;16.83;10.90;;;5.10;92.70;;;;;;6155709;23;20006;-88
2021/01/01 20:34:53;;;;;;;14.27;10.20;;;5.10;92.70;;;;;;6046962;23;20015;-87
2021/01/01 20:41:25;;;;;;;16.48;10.95;;;5.10;92.70;;;;;;6140469;23;20005;-87
2021/01/01 20:45:02;;;;;;;;;;;;;;;;;;;;;
2021/01/01 20:57:48;;;;;;;18.15;10.57;;;5.10;92.60;;;;;;6148897;23;20001;-87
2021/01/01 21:00:27;;;;;;;18.25;10.93;;;5.10;92.70;;;;;;6153641;23;20013;-87
2021/01/01 21:03:52;;;;;;;;;;;;;;;;;;;;;
2021/01/01 21:07:15;;;;;;;;;;;;;;;;;;;;;
2021/01/01 21:10:32;;;;;;;18.25;11.63;;;5.00;92.70;;;;;;6153477;23;20081;-88
2021/01/01 21:13:34;;;;;;;;;;;;;;;;;;;;;
2021/01/01 21:16:20;;;;;;;17.52;9.68;;;5.00;92.70;;;;;;6154680;23;20387;-89